createdAt,value
2022-12-16T00:02:02.386Z,-0.98
2022-12-16T00:07:03.856Z,-1.00
2022-12-16T00:12:05.605Z,-0.99
2022-12-16T00:17:07.109Z,-1.01
2022-12-16T00:22:08.679Z,-0.99
2022-12-16T00:27:10.743Z,-0.92
2022-12-16T00:32:12.399Z,-0.95
2022-12-16T00:37:14.090Z,-0.97
2022-12-16T00:42:15.497Z,-0.96
2022-12-16T00:47:16.987Z,-0.98
2022-12-16T00:52:18.396Z,-0.95
2022-12-16T00:57:20.860Z,-1.08
2022-12-16T01:02:22.470Z,-1.07
2022-12-16T01:07:24.325Z,-1.10
2022-12-16T01:12:25.752Z,-1.06
2022-12-16T01:17:27.608Z,-1.04
2022-12-16T01:22:32.601Z,-1.02
2022-12-16T01:27:34.216Z,-1.02
2022-12-16T01:32:36.029Z,-1.03
2022-12-16T01:37:37.603Z,-1.01
2022-12-16T01:42:39.127Z,-0.94
2022-12-16T01:47:40.631Z,-1.00
2022-12-16T01:52:46.406Z,-0.97
2022-12-16T01:57:51.923Z,-0.99
2022-12-16T02:02:58.284Z,-0.99
2022-12-16T02:08:14.244Z,-1.00
2022-12-16T02:13:25.769Z,-1.12
2022-12-16T02:18:52.194Z,-0.95
2022-12-16T02:24:29.845Z,-0.90
2022-12-16T02:29:56.267Z,-0.92
2022-12-16T02:35:26.946Z,-0.90
2022-12-16T02:40:41.892Z,-0.92
2022-12-16T02:45:44.300Z,-0.93
2022-12-16T02:50:50.704Z,-0.90
2022-12-16T02:56:10.687Z,-0.82
2022-12-16T03:01:22.747Z,-0.88
2022-12-16T03:06:26.434Z,-0.87
2022-12-16T03:11:30.623Z,-0.88
2022-12-16T03:16:34.584Z,-0.88
2022-12-16T03:21:47.731Z,-0.85
2022-12-16T03:27:10.707Z,-0.84
2022-12-16T03:32:17.949Z,-0.85
2022-12-16T03:37:23.431Z,-0.80
2022-12-16T03:42:25.150Z,-0.69
2022-12-16T03:47:29.131Z,-0.90
2022-12-16T03:52:30.729Z,-0.74
2022-12-16T03:57:32.211Z,-0.79
2022-12-16T04:02:33.886Z,-0.81
2022-12-16T04:07:35.512Z,-0.82
2022-12-16T04:12:55.605Z,-0.80
2022-12-16T04:18:20.283Z,-0.82
2022-12-16T04:23:43.318Z,-0.82
2022-12-16T04:28:44.732Z,-0.79
2022-12-16T04:34:04.955Z,-0.78
2022-12-16T04:39:25.071Z,-0.73
2022-12-16T04:44:45.156Z,-0.73
2022-12-16T04:50:05.080Z,-0.66
2022-12-16T04:55:26.158Z,-0.62
2022-12-16T05:00:46.193Z,-0.68
2022-12-16T05:06:06.343Z,-0.71
2022-12-16T05:11:26.239Z,-0.66
2022-12-16T05:16:46.467Z,-0.68
2022-12-16T05:22:06.547Z,-0.68
2022-12-16T05:27:26.708Z,-0.68
2022-12-16T05:32:46.945Z,-0.68
2022-12-16T05:38:07.111Z,-0.62
2022-12-16T05:43:27.347Z,-0.66
2022-12-16T05:48:47.962Z,-0.60
2022-12-16T05:54:08.015Z,-0.60
2022-12-16T05:59:27.839Z,-0.65
2022-12-16T06:04:47.862Z,-0.68
2022-12-16T06:10:08.070Z,-0.72
2022-12-16T06:15:29.210Z,-0.66
2022-12-16T06:20:49.295Z,-0.64
2022-12-16T06:26:09.548Z,-0.68
2022-12-16T06:31:30.172Z,-0.74
2022-12-16T06:36:50.128Z,-0.67
2022-12-16T06:42:10.212Z,-0.65
2022-12-16T06:47:30.485Z,-0.64
2022-12-16T06:52:50.635Z,-0.64
2022-12-16T06:58:18.355Z,-0.65
2022-12-16T07:03:38.516Z,-0.63
2022-12-16T07:08:58.816Z,-0.57
2022-12-16T07:14:19.035Z,-0.58
2022-12-16T07:19:39.159Z,-0.58
2022-12-16T07:24:59.208Z,-0.69
2022-12-16T07:30:19.238Z,-0.64
2022-12-16T07:35:39.403Z,-0.66
2022-12-16T07:40:59.431Z,-0.63
2022-12-16T07:46:19.665Z,-0.62
2022-12-16T07:51:39.501Z,-0.61
2022-12-16T07:56:59.761Z,-0.64
2022-12-16T08:02:20.177Z,-0.58
2022-12-16T08:07:40.292Z,-0.52
2022-12-16T08:13:00.348Z,-0.45
2022-12-16T08:18:21.124Z,-0.38
2022-12-16T08:23:41.131Z,-0.37
2022-12-16T08:29:20.281Z,-0.28
2022-12-16T08:34:41.375Z,-0.29
2022-12-16T08:40:18.039Z,-0.21
2022-12-16T08:45:41.947Z,-0.13
2022-12-16T08:51:01.895Z,-0.16
2022-12-16T08:56:22.104Z,-0.15
2022-12-16T09:01:42.334Z,-0.18
2022-12-16T09:07:02.223Z,-0.18
2022-12-16T09:12:22.338Z,-0.19
2022-12-16T09:17:42.552Z,-0.15
2022-12-16T09:23:02.443Z,-0.10
2022-12-16T09:28:42.315Z,-0.05
2022-12-16T09:34:02.481Z,-0.04
2022-12-16T09:39:22.361Z,0.02
2022-12-16T09:44:54.592Z,0.08
2022-12-16T09:50:29.259Z,0.12
2022-12-16T09:55:55.118Z,0.16
2022-12-16T10:01:17.432Z,0.17
2022-12-16T10:07:10.163Z,0.18
2022-12-16T10:12:42.275Z,0.24
2022-12-16T10:18:12.796Z,0.49
2022-12-16T10:23:46.343Z,0.68
2022-12-16T10:29:12.001Z,0.73
2022-12-16T10:34:53.986Z,0.79
2022-12-16T10:40:17.634Z,0.83
2022-12-16T10:45:47.332Z,0.81
2022-12-16T10:51:07.438Z,0.78
2022-12-16T10:56:33.300Z,0.76
2022-12-16T11:01:53.628Z,0.74
2022-12-16T11:07:14.418Z,0.73
2022-12-16T11:12:49.965Z,0.72
2022-12-16T11:18:32.501Z,0.78
2022-12-16T11:23:52.287Z,0.89
2022-12-16T11:29:35.061Z,0.92
2022-12-16T11:34:55.710Z,0.92
2022-12-16T11:40:16.311Z,0.90
2022-12-16T11:45:39.500Z,0.94
2022-12-16T11:51:13.141Z,0.97
2022-12-16T11:56:42.409Z,1.08
2022-12-16T12:02:16.635Z,1.22
2022-12-16T12:08:02.402Z,1.22
2022-12-16T12:13:46.329Z,1.27
2022-12-16T12:19:22.154Z,1.23
2022-12-16T12:24:58.203Z,1.24
2022-12-16T12:30:28.962Z,1.15
2022-12-16T12:35:58.408Z,1.10
2022-12-16T12:41:37.126Z,0.99
2022-12-16T12:47:07.926Z,1.01
2022-12-16T12:52:28.836Z,1.00
2022-12-16T12:57:51.391Z,0.92
2022-12-16T13:03:21.446Z,0.92
2022-12-16T13:08:51.688Z,0.89
2022-12-16T13:14:11.575Z,0.82
2022-12-16T13:19:50.075Z,0.78
2022-12-16T13:25:10.242Z,0.76
2022-12-16T13:30:30.472Z,0.70
2022-12-16T13:36:04.380Z,0.69
2022-12-16T13:41:44.654Z,0.64
2022-12-16T13:47:05.965Z,0.56
2022-12-16T13:52:35.149Z,0.50
2022-12-16T13:57:59.829Z,0.42
2022-12-16T14:03:23.140Z,0.29
2022-12-16T14:08:43.945Z,0.25
2022-12-16T14:14:22.425Z,0.20
2022-12-16T14:19:45.636Z,0.15
2022-12-16T14:25:05.731Z,0.08
2022-12-16T14:30:39.248Z,-0.02
2022-12-16T14:36:08.454Z,-0.09
2022-12-16T14:41:33.865Z,-0.24
2022-12-16T14:46:55.070Z,-0.21
2022-12-16T14:52:15.104Z,-0.33
2022-12-16T14:57:37.815Z,-0.44
2022-12-16T15:03:04.347Z,-0.63
2022-12-16T15:08:28.145Z,-0.77
2022-12-16T15:13:48.821Z,-0.89
2022-12-16T15:19:17.404Z,-1.00
2022-12-16T15:24:41.285Z,-1.12
2022-12-16T15:30:01.459Z,-1.24
2022-12-16T15:35:21.464Z,-1.24
2022-12-16T15:40:46.110Z,-1.26
2022-12-16T15:46:13.112Z,-1.30
2022-12-16T15:51:51.261Z,-1.31
2022-12-16T15:57:11.483Z,-1.35
2022-12-16T16:02:44.695Z,-1.31
2022-12-16T16:08:05.772Z,-1.30
2022-12-16T16:13:27.223Z,-1.37
2022-12-16T16:18:47.356Z,-1.33
2022-12-16T16:24:07.378Z,-1.36
2022-12-16T16:29:29.170Z,-1.38
2022-12-16T16:34:49.342Z,-1.35
2022-12-16T16:40:09.524Z,-1.35
2022-12-16T16:45:31.091Z,-1.35
2022-12-16T16:50:51.365Z,-1.33
2022-12-16T16:56:18.175Z,-1.33
2022-12-16T17:01:39.973Z,-1.30
2022-12-16T17:07:00.027Z,-1.34
2022-12-16T17:12:20.192Z,-1.37
2022-12-16T17:17:40.443Z,-1.35
2022-12-16T17:23:00.518Z,-1.40
2022-12-16T17:28:21.260Z,-1.46
2022-12-16T17:33:41.176Z,-1.44
2022-12-16T17:39:02.962Z,-1.48
2022-12-16T17:44:23.115Z,-1.49
2022-12-16T17:49:43.253Z,-1.52
2022-12-16T17:55:03.086Z,-1.59
2022-12-16T18:00:23.827Z,-1.68
2022-12-16T18:05:44.809Z,-1.76
2022-12-16T18:11:04.968Z,-1.90
2022-12-16T18:16:25.245Z,-2.00
2022-12-16T18:21:45.471Z,-2.20
2022-12-16T18:27:05.602Z,-2.51
2022-12-16T18:32:28.307Z,-2.73
2022-12-16T18:37:50.816Z,-2.86
2022-12-16T18:43:10.593Z,-2.93
2022-12-16T18:48:30.403Z,-2.86
2022-12-16T18:53:50.474Z,-2.87
2022-12-16T18:59:12.631Z,-2.91
2022-12-16T19:04:32.744Z,-2.94
2022-12-16T19:09:52.921Z,-3.13
2022-12-16T19:15:12.956Z,-3.36
2022-12-16T19:20:33.411Z,-3.52
2022-12-16T19:25:53.429Z,-3.60
2022-12-16T19:31:14.558Z,-3.68
2022-12-16T19:36:34.728Z,-3.69
2022-12-16T19:41:56.208Z,-3.70
2022-12-16T19:47:16.391Z,-3.75
2022-12-16T19:52:36.579Z,-3.77
2022-12-16T19:57:56.585Z,-3.67
2022-12-16T20:03:16.896Z,-3.55
2022-12-16T20:08:50.987Z,-3.46
2022-12-16T20:14:15.008Z,-3.43
2022-12-16T20:19:34.988Z,-3.43
2022-12-16T20:24:56.289Z,-3.48
2022-12-16T20:30:16.627Z,-3.38
2022-12-16T20:35:56.603Z,-3.52
2022-12-16T20:41:21.784Z,-3.52
2022-12-16T20:46:41.831Z,-3.65
2022-12-16T20:52:01.691Z,-3.69
2022-12-16T20:57:22.066Z,-3.80
2022-12-16T21:02:42.190Z,-3.94
2022-12-16T21:08:02.651Z,-3.99
2022-12-16T21:13:31.771Z,-4.08
2022-12-16T21:18:51.843Z,-4.17
2022-12-16T21:24:12.082Z,-4.32
2022-12-16T21:29:32.066Z,-4.37
2022-12-16T21:35:06.047Z,-4.42
2022-12-16T21:40:27.035Z,-4.51
2022-12-16T21:45:47.187Z,-4.61
2022-12-16T21:51:13.443Z,-4.71
2022-12-16T21:56:33.787Z,-4.74
2022-12-16T22:01:53.945Z,-4.80
2022-12-16T22:07:16.498Z,-4.96
2022-12-16T22:12:36.404Z,-4.92
2022-12-16T22:17:58.511Z,-4.82
2022-12-16T22:23:36.884Z,-4.75
2022-12-16T22:28:57.018Z,-4.82
2022-12-16T22:34:17.967Z,-4.99
2022-12-16T22:39:44.440Z,-5.17
2022-12-16T22:45:04.932Z,-5.09
2022-12-16T22:50:25.371Z,-5.11
2022-12-16T22:55:45.572Z,-5.13
2022-12-16T23:01:05.795Z,-5.30
2022-12-16T23:06:27.998Z,-5.31
2022-12-16T23:11:56.594Z,-5.48
2022-12-16T23:17:17.023Z,-5.56
2022-12-16T23:22:37.170Z,-5.50
2022-12-16T23:27:57.320Z,-5.65
2022-12-16T23:33:18.912Z,-5.56
2022-12-16T23:38:39.161Z,-5.59
2022-12-16T23:43:59.031Z,-5.65
2022-12-16T23:49:18.846Z,-5.59
2022-12-16T23:54:39.014Z,-5.59
2022-12-16T23:59:59.423Z,-5.56
